^^
B2 Weather Station Historical Data
Daily Summary for December 3, 2017 Units:  English    Metric   Both
Daily Weekly Monthly Yearly Custom
  High: Low: Average:
Temperature: 58.5 °F 26.1 °F 42 °F
Dew Point: 40.0 °F 22.2 °F 33.3 °F
Humidity: 90% 48% 73%
Wind Speed: 12.7mph 0.0mph 2.5mph
Wind Gust: 12.7mph - -
Wind- - SSW
Pressure: 30.24 in 30.02 in -
Precipitation: 0.00 in    
Historical Graphs
 
 
Tabular Data for December 3, 2017
Time Temperature Dew Point Pressure Wind Wind Speed Wind Gust Humidity Rainfall Rate (Hourly) solar
00:04 32.5 °F 28.8 °F 30.16 in Calm     86% 0.00 in 0.0 W/m2
00:09 32.6 °F 28.9 °F 30.16 in Calm     86% 0.00 in 0.0 W/m2
00:14 32.5 °F 28.2 °F 30.16 in Calm     84% 0.00 in 0.0 W/m2
00:19 32.1 °F 27.5 °F 30.16 in Calm     83% 0.00 in 0.0 W/m2
00:29 31.9 °F 27.6 °F 30.16 in Calm     84% 0.00 in 0.0 W/m2
00:34 31.9 °F 27.6 °F 30.16 in Calm     84% 0.00 in 0.0 W/m2
00:39 31.5 °F 26.6 °F 30.16 in Calm     82% 0.00 in 0.0 W/m2
00:44 31.1 °F 26.2 °F 30.16 in Calm     82% 0.00 in 0.0 W/m2
00:59 31.0 °F 27.0 °F 30.17 in Calm     85% 0.00 in 0.0 W/m2
01:04 31.2 °F 27.2 °F 30.17 in Calm     85% 0.00 in 0.0 W/m2
01:14 31.1 °F 26.8 °F 30.18 in Calm     84% 0.00 in 0.0 W/m2
01:19 31.1 °F 26.8 °F 30.18 in Calm     84% 0.00 in 0.0 W/m2
01:29 31.1 °F 26.2 °F 30.18 in Calm     82% 0.00 in 0.0 W/m2
01:34 30.8 °F 26.0 °F 30.18 in Calm     82% 0.00 in 0.0 W/m2
01:44 30.3 °F 25.8 °F 30.17 in Calm     83% 0.00 in 0.0 W/m2
01:50 30.1 °F 25.8 °F 30.18 in Calm     84% 0.00 in 0.0 W/m2
01:55 30.2 °F 26.2 °F 30.18 in Calm     85% 0.00 in 0.0 W/m2
02:05 30.1 °F 26.4 °F 30.18 in Calm     86% 0.00 in 0.0 W/m2
02:15 29.9 °F 25.9 °F 30.19 in Calm     85% 0.00 in 0.0 W/m2
02:20 29.7 °F 25.7 °F 30.19 in Calm     85% 0.00 in 0.0 W/m2
02:25 29.9 °F 26.2 °F 30.19 in Calm     86% 0.00 in 0.0 W/m2
02:30 29.9 °F 26.2 °F 30.19 in Calm     86% 0.00 in 0.0 W/m2
02:35 30.0 °F 26.3 °F 30.19 in Calm     86% 0.00 in 0.0 W/m2
02:40 29.9 °F 25.9 °F 30.19 in Calm     85% 0.00 in 0.0 W/m2
02:45 30.0 °F 26.0 °F 30.19 in Calm     85% 0.00 in 0.0 W/m2
02:50 30.2 °F 25.9 °F 30.18 in Calm     84% 0.00 in 0.0 W/m2
03:00 30.2 °F 25.9 °F 30.18 in Calm     84% 0.00 in 0.0 W/m2
03:05 30.2 °F 25.9 °F 30.18 in Calm     84% 0.00 in 0.0 W/m2
03:10 30.1 °F 25.8 °F 30.18 in Calm     84% 0.00 in 0.0 W/m2
03:15 30.5 °F 26.8 °F 30.19 in Calm     86% 0.00 in 0.0 W/m2
03:20 30.7 °F 27.0 °F 30.18 in Calm     86% 0.00 in 0.0 W/m2
03:40 29.8 °F 25.8 °F 30.19 in Calm     85% 0.00 in 0.0 W/m2
03:45 29.8 °F 25.8 °F 30.19 in Calm     85% 0.00 in 0.0 W/m2
03:50 29.8 °F 25.8 °F 30.19 in Calm     85% 0.00 in 0.0 W/m2
03:55 29.8 °F 25.8 °F 30.19 in Calm     85% 0.00 in 0.0 W/m2
04:00 29.7 °F 25.7 °F 30.19 in Calm     85% 0.00 in 0.0 W/m2
04:05 29.3 °F 24.8 °F 30.19 in Calm     83% 0.00 in 0.0 W/m2
04:10 29.1 °F 24.9 °F 30.19 in Calm     84% 0.00 in 0.0 W/m2
04:15 29.0 °F 24.8 °F 30.19 in Calm     84% 0.00 in 0.0 W/m2
04:20 28.9 °F 24.7 °F 30.19 in Calm     84% 0.00 in 0.0 W/m2
04:25 29.0 °F 24.8 °F 30.20 in Calm     84% 0.00 in 0.0 W/m2
04:30 29.1 °F 24.6 °F 30.20 in Calm     83% 0.00 in 0.0 W/m2
04:35 29.3 °F 25.1 °F 30.20 in Calm     84% 0.00 in 0.0 W/m2
04:40 29.3 °F 24.5 °F 30.20 in Calm     82% 0.00 in 0.0 W/m2
04:45 29.2 °F 24.7 °F 30.20 in Calm     83% 0.00 in 0.0 W/m2
04:50 29.3 °F 24.8 °F 30.20 in Calm     83% 0.00 in 0.0 W/m2
04:55 29.3 °F 24.8 °F 30.20 in Calm     83% 0.00 in 0.0 W/m2
05:00 29.3 °F 25.1 °F 30.20 in Calm     84% 0.00 in 0.0 W/m2
05:05 29.2 °F 25.0 °F 30.20 in Calm     84% 0.00 in 0.0 W/m2
05:10 29.1 °F 24.9 °F 30.20 in Calm     84% 0.00 in 0.0 W/m2
05:15 29.1 °F 24.9 °F 30.20 in Calm     84% 0.00 in 0.0 W/m2
05:20 28.9 °F 24.4 °F 30.20 in Calm     83% 0.00 in 0.0 W/m2
05:25 28.9 °F 24.7 °F 30.21 in Calm     84% 0.00 in 0.0 W/m2
05:30 28.8 °F 24.6 °F 30.21 in Calm     84% 0.00 in 0.0 W/m2
05:35 28.7 °F 24.5 °F 30.21 in Calm     84% 0.00 in 0.0 W/m2
05:37 28.7 °F 24.2 °F 30.20 in Calm     83% 0.00 in 0.0 W/m2
05:42 28.3 °F 23.5 °F 30.21 in Calm     82% 0.00 in 0.0 W/m2
05:47 28.1 °F 23.6 °F 30.21 in Calm     83% 0.00 in 0.0 W/m2
05:52 28.0 °F 23.8 °F 30.21 in Calm     84% 0.00 in 0.0 W/m2
05:57 27.8 °F 23.3 °F 30.21 in Calm     83% 0.00 in 0.0 W/m2
06:02 27.1 °F 22.6 °F 30.21 in Calm     83% 0.00 in 0.0 W/m2
06:07 26.7 °F 22.5 °F 30.20 in Calm     84% 0.00 in 0.0 W/m2
06:17 26.1 °F 22.2 °F 30.21 in Calm     85% 0.00 in 0.0 W/m2
06:22 26.2 °F 22.9 °F 30.21 in Calm     87% 0.00 in 0.0 W/m2
06:27 26.3 °F 23.2 °F 30.21 in Calm     88% 0.00 in 0.0 W/m2
06:32 26.4 °F 23.3 °F 30.21 in Calm     88% 0.00 in 0.0 W/m2
06:37 26.5 °F 23.7 °F 30.22 in Calm     89% 0.00 in 0.0 W/m2
06:42 26.7 °F 23.9 °F 30.21 in Calm     89% 0.00 in 0.0 W/m2
06:47 26.9 °F 24.1 °F 30.22 in Calm     89% 0.00 in 0.0 W/m2
06:52 26.9 °F 24.1 °F 30.22 in Calm     89% 0.00 in 0.0 W/m2
06:57 27.0 °F 24.2 °F 30.22 in Calm     89% 0.00 in 0.0 W/m2
07:02 27.1 °F 24.3 °F 30.22 in Calm     89% 0.00 in 0.0 W/m2
07:07 27.0 °F 24.2 °F 30.22 in Calm     89% 0.00 in 7.0 W/m2
07:12 27.0 °F 24.2 °F 30.22 in Calm     89% 0.00 in 11.0 W/m2
07:17 27.1 °F 24.3 °F 30.22 in Calm     89% 0.00 in 12.0 W/m2
07:22 27.3 °F 24.5 °F 30.22 in Calm     89% 0.00 in 18.0 W/m2
07:27 27.8 °F 25.2 °F 30.22 in Calm     90% 0.00 in 26.0 W/m2
07:32 28.3 °F 25.7 °F 30.22 in Calm     90% 0.00 in 35.0 W/m2
07:37 28.9 °F 26.3 °F 30.22 in Calm     90% 0.00 in 47.0 W/m2
07:42 29.9 °F 27.3 °F 30.22 in Calm     90% 0.00 in 53.0 W/m2
07:47 30.8 °F 28.2 °F 30.22 in Calm     90% 0.00 in 60.0 W/m2
07:52 31.6 °F 29.0 °F 30.22 in Calm     90% 0.00 in 70.0 W/m2
07:57 32.4 °F 29.5 °F 30.22 in Calm     89% 0.00 in 88.0 W/m2
08:02 33.0 °F 29.8 °F 30.21 in Calm     88% 0.00 in 104.0 W/m2
08:07 33.5 °F 30.3 °F 30.21 in Calm     88% 0.00 in 120.0 W/m2
08:12 34.0 °F 30.8 °F 30.21 in Calm     88% 0.00 in 116.0 W/m2
08:17 34.5 °F 31.3 °F 30.22 in Calm     88% 0.00 in 125.0 W/m2
08:22 35.4 °F 32.2 °F 30.22 in Calm     88% 0.00 in 139.0 W/m2
08:27 36.2 °F 32.4 °F 30.22 in Calm     86% 0.00 in 155.0 W/m2
08:32 36.6 °F 32.5 °F 30.22 in Calm     85% 0.00 in 167.0 W/m2
08:37 36.9 °F 32.8 °F 30.21 in Calm     85% 0.00 in 185.0 W/m2
08:42 37.0 °F 32.9 °F 30.22 in Calm     85% 0.00 in 204.0 W/m2
08:47 37.5 °F 33.7 °F 30.21 in Calm     86% 0.00 in 218.0 W/m2
08:52 37.9 °F 34.1 °F 30.21 in Calm     86% 0.00 in 230.0 W/m2
08:57 38.3 °F 34.5 °F 30.22 in Calm     86% 0.00 in 241.0 W/m2
09:02 38.8 °F 35.0 °F 30.22 in Calm     86% 0.00 in 255.0 W/m2
09:07 39.3 °F 35.5 °F 30.22 in Calm     86% 0.00 in 269.0 W/m2
09:12 39.9 °F 36.1 °F 30.23 in Calm     86% 0.00 in 276.0 W/m2
09:17 40.6 °F 36.4 °F 30.23 in Calm     85% 0.00 in 285.0 W/m2
09:23 41.3 °F 36.5 °F 30.24 in Calm     83% 0.00 in 301.0 W/m2
09:28 41.7 °F 36.6 °F 30.24 in Calm     82% 0.00 in 309.0 W/m2
09:32 42.5 °F 37.1 °F 30.24 in Calm     81% 0.00 in 318.0 W/m2
09:38 43.5 °F 37.1 °F 30.24 in Calm     78% 0.00 in 322.0 W/m2
09:43 44.5 °F 37.4 °F 30.24 in Calm     76% 0.00 in 336.0 W/m2
09:48 45.4 °F 37.9 °F 30.24 in Calm     75% 0.00 in 343.0 W/m2
09:53 46.1 °F 37.9 °F 30.24 in Calm     73% 0.00 in 352.0 W/m2
09:56 46.4 °F 37.5 °F 30.24 in Calm     71% 0.00 in 355.0 W/m2
10:01 47.0 °F 38.4 °F 30.24 in Calm     72% 0.00 in 362.0 W/m2
10:06 47.7 °F 38.4 °F 30.24 in WSW 3.5 mph 3.5 mph 70% 0.00 in 371.0 W/m2
10:11 47.9 °F 38.2 °F 30.24 in WSW 4.6 mph 4.6 mph 69% 0.00 in 376.0 W/m2
10:16 48.2 °F 37.8 °F 30.24 in WSW 3.5 mph 3.5 mph 67% 0.00 in 383.0 W/m2
10:21 48.5 °F 38.0 °F 30.24 in WSW 3.5 mph 3.5 mph 67% 0.00 in 390.0 W/m2
10:26 48.8 °F 38.3 °F 30.24 in WSW 3.5 mph 3.5 mph 67% 0.00 in 399.0 W/m2
10:31 49.2 °F 39.1 °F 30.24 in WSW 3.5 mph   68% 0.00 in 410.0 W/m2
10:36 49.4 °F 38.1 °F 30.23 in WSW 4.6 mph 4.6 mph 65% 0.00 in 371.0 W/m2
10:41 49.4 °F 38.1 °F 30.23 in WSW 4.6 mph 4.6 mph 65% 0.00 in 336.0 W/m2
10:46 49.7 °F 38.8 °F 30.23 in WSW 3.5 mph 3.5 mph 66% 0.00 in 374.0 W/m2
10:51 50.1 °F 39.2 °F 30.22 in WSW 1.2 mph   66% 0.00 in 390.0 W/m2
10:56 50.4 °F 38.3 °F 30.23 in WSW 3.5 mph 3.5 mph 63% 0.00 in 418.0 W/m2
11:01 50.8 °F 39.1 °F 30.22 in WSW 3.5 mph 3.5 mph 64% 0.00 in 396.0 W/m2
11:06 51.2 °F 39.0 °F 30.22 in WSW 3.5 mph 3.5 mph 63% 0.00 in 390.0 W/m2
11:11 51.8 °F 38.8 °F 30.22 in WSW 6.0 mph 6.0 mph 61% 0.00 in 353.0 W/m2
11:16 52.1 °F 39.1 °F 30.21 in WSW 4.0 mph 4.0 mph 61% 0.00 in 329.0 W/m2
11:21 52.4 °F 39.3 °F 30.21 in WSW 4.6 mph 4.6 mph 61% 0.00 in 450.0 W/m2
11:26 52.9 °F 39.4 °F 30.21 in WSW 3.5 mph 3.5 mph 60% 0.00 in 401.0 W/m2
11:31 53.2 °F 39.2 °F 30.21 in WSW 3.5 mph 3.5 mph 59% 0.00 in 443.0 W/m2
11:36 53.6 °F 39.2 °F 30.21 in WSW 4.6 mph 4.6 mph 58% 0.00 in 441.0 W/m2
11:41 54.1 °F 39.2 °F 30.20 in WSW 3.5 mph 3.5 mph 57% 0.00 in 441.0 W/m2
11:46 54.4 °F 39.5 °F 30.20 in WSW 4.6 mph 4.6 mph 57% 0.00 in 439.0 W/m2
11:51 54.7 °F 39.8 °F 30.20 in WSW 4.6 mph 4.6 mph 57% 0.00 in 439.0 W/m2
11:56 55.1 °F 39.7 °F 30.20 in WSW 5.8 mph 5.8 mph 56% 0.00 in 438.0 W/m2
12:01 55.3 °F 38.9 °F 30.19 in WSW 5.8 mph 5.8 mph 54% 0.00 in 438.0 W/m2
12:06 55.5 °F 39.6 °F 30.19 in WSW 4.6 mph 4.6 mph 55% 0.00 in 436.0 W/m2
12:11 55.8 °F 39.4 °F 30.19 in WSW 6.9 mph 6.9 mph 54% 0.00 in 431.0 W/m2
12:16 55.8 °F 38.9 °F 30.18 in WSW 5.8 mph 5.8 mph 53% 0.00 in 432.0 W/m2
12:21 56.0 °F 39.1 °F 30.18 in WSW 5.8 mph 5.8 mph 53% 0.00 in 427.0 W/m2
12:26 56.2 °F 39.8 °F 30.18 in WSW 3.0 mph 3.0 mph 54% 0.00 in 425.0 W/m2
12:31 56.4 °F 39.5 °F 30.18 in WSW 7.0 mph 7.0 mph 53% 0.00 in 425.0 W/m2
12:36 56.7 °F 39.3 °F 30.18 in WSW 4.6 mph 4.6 mph 52% 0.00 in 420.0 W/m2
12:41 56.8 °F 38.9 °F 30.17 in WSW 5.8 mph 5.8 mph 51% 0.00 in 417.0 W/m2
12:46 57.1 °F 39.1 °F 30.17 in WSW 6.9 mph 6.9 mph 51% 0.00 in 411.0 W/m2
12:51 57.3 °F 39.3 °F 30.17 in WSW 4.6 mph 4.6 mph 51% 0.00 in 406.0 W/m2
12:56 57.3 °F 39.3 °F 30.16 in WSW 6.9 mph 6.9 mph 51% 0.00 in 401.0 W/m2
13:01 57.5 °F 40.0 °F 30.16 in WSW 9.2 mph 9.2 mph 52% 0.00 in 362.0 W/m2
13:06 57.6 °F 39.6 °F 30.16 in WSW 8.1 mph 8.1 mph 51% 0.00 in 392.0 W/m2
13:11 57.5 °F 39.0 °F 30.16 in WSW 6.9 mph 6.9 mph 50% 0.00 in 387.0 W/m2
13:16 57.7 °F 39.2 °F 30.16 in SW 9.2 mph 9.2 mph 50% 0.00 in 381.0 W/m2
13:21 57.8 °F 38.8 °F 30.16 in SW 9.0 mph 9.0 mph 49% 0.00 in 374.0 W/m2
13:26 58.0 °F 39.5 °F 30.15 in SW 6.9 mph 6.9 mph 50% 0.00 in 369.0 W/m2
13:31 58.2 °F 39.6 °F 30.15 in SW 7.0 mph 7.0 mph 50% 0.00 in 364.0 W/m2
13:36 58.2 °F 38.6 °F 30.15 in SW 7.0 mph 7.0 mph 48% 0.00 in 355.0 W/m2
13:41 58.2 °F 39.6 °F 30.15 in SW 8.0 mph 8.0 mph 50% 0.00 in 345.0 W/m2
13:42 58.2 °F 39.6 °F 30.15 in SW 8.1 mph 8.1 mph 50% 0.00 in 345.0 W/m2
13:47 58.4 °F 39.3 °F 30.15 in SW 9.2 mph 9.2 mph 49% 0.00 in 341.0 W/m2
13:52 58.5 °F 39.4 °F 30.14 in SW 8.1 mph 8.1 mph 49% 0.00 in 327.0 W/m2
13:57 58.4 °F 39.8 °F 30.14 in SW 11.5 mph 11.5 mph 50% 0.00 in 278.0 W/m2
14:02 58.1 °F 38.5 °F 30.14 in SW 10.4 mph 10.4 mph 48% 0.00 in 234.0 W/m2
14:07 57.9 °F 38.3 °F 30.14 in SSW 7.0 mph 7.0 mph 48% 0.00 in 258.0 W/m2
14:12 57.8 °F 39.3 °F 30.14 in SSW 5.8 mph 5.8 mph 50% 0.00 in 264.0 W/m2
14:13 57.9 °F 38.8 °F 30.14 in SSW 6.9 mph 6.9 mph 49% 0.00 in 250.0 W/m2
14:18 57.8 °F 38.8 °F 30.14 in SSW 8.1 mph 8.1 mph 49% 0.00 in 211.0 W/m2
14:23 57.7 °F 38.7 °F 30.14 in SSW 10.4 mph 10.4 mph 49% 0.00 in 218.0 W/m2
14:28 57.6 °F 38.6 °F 30.14 in South 9.2 mph 9.2 mph 49% 0.00 in 197.0 W/m2
14:33 57.4 °F 37.9 °F 30.14 in South 9.2 mph 9.2 mph 48% 0.00 in 192.0 W/m2
14:38 57.5 °F 37.9 °F 30.14 in South 6.9 mph 6.9 mph 48% 0.00 in 221.0 W/m2
14:43 57.6 °F 38.6 °F 30.14 in South 9.2 mph 9.2 mph 49% 0.00 in 197.0 W/m2
14:48 57.5 °F 38.5 °F 30.14 in South 8.1 mph 8.1 mph 49% 0.00 in 174.0 W/m2
14:53 57.3 °F 38.3 °F 30.14 in South 9.2 mph 9.2 mph 49% 0.00 in 158.0 W/m2
14:58 57.1 °F 38.1 °F 30.14 in South 8.1 mph 8.1 mph 49% 0.00 in 97.0 W/m2
15:03 56.6 °F 38.2 °F 30.14 in South 5.8 mph 5.8 mph 50% 0.00 in 97.0 W/m2
15:08 56.2 °F 37.8 °F 30.14 in South 3.5 mph 3.5 mph 50% 0.00 in 102.0 W/m2
15:13 56.1 °F 38.2 °F 30.14 in South 3.5 mph 3.5 mph 51% 0.00 in 72.0 W/m2
15:18 55.8 °F 37.9 °F 30.14 in South 3.5 mph 3.5 mph 51% 0.00 in 70.0 W/m2
15:23 55.3 °F 38.0 °F 30.13 in South 4.6 mph 4.6 mph 52% 0.00 in 67.0 W/m2
15:28 54.8 °F 38.5 °F 30.13 in South 3.5 mph 3.5 mph 54% 0.00 in 86.0 W/m2
15:33 54.5 °F 38.2 °F 30.13 in South 6.9 mph 6.9 mph 54% 0.00 in 30.0 W/m2
15:43 53.7 °F 38.4 °F 30.13 in Calm     56% 0.00 in 26.0 W/m2
15:48 53.3 °F 38.4 °F 30.13 in Calm     57% 0.00 in 23.0 W/m2
15:53 52.7 °F 38.3 °F 30.13 in Calm     58% 0.00 in 19.0 W/m2
15:58 51.9 °F 38.0 °F 30.13 in Calm     59% 0.00 in 14.0 W/m2
16:03 51.2 °F 37.8 °F 30.13 in Calm     60% 0.00 in 11.0 W/m2
16:08 50.5 °F 37.5 °F 30.13 in Calm     61% 0.00 in 11.0 W/m2
16:13 49.8 °F 37.3 °F 30.12 in Calm     62% 0.00 in 7.0 W/m2
16:18 49.3 °F 37.2 °F 30.12 in Calm     63% 0.00 in 5.0 W/m2
16:23 48.7 °F 37.1 °F 30.12 in Calm     64% 0.00 in 0.0 W/m2
16:28 48.3 °F 37.1 °F 30.12 in Calm     65% 0.00 in 0.0 W/m2
16:33 48.0 °F 36.8 °F 30.12 in Calm     65% 0.00 in 0.0 W/m2
16:38 47.7 °F 36.9 °F 30.12 in Calm     66% 0.00 in 0.0 W/m2
16:43 47.4 °F 36.6 °F 30.12 in Calm     66% 0.00 in 0.0 W/m2
16:48 47.0 °F 36.6 °F 30.11 in Calm     67% 0.00 in 0.0 W/m2
16:53 46.5 °F 36.1 °F 30.11 in Calm     67% 0.00 in 0.0 W/m2
16:58 46.2 °F 36.2 °F 30.11 in Calm     68% 0.00 in 0.0 W/m2
17:03 45.8 °F 36.2 °F 30.11 in Calm     69% 0.00 in 0.0 W/m2
17:08 45.4 °F 36.2 °F 30.10 in Calm     70% 0.00 in 0.0 W/m2
17:13 45.0 °F 35.8 °F 30.10 in Calm     70% 0.00 in 0.0 W/m2
17:18 44.8 °F 36.0 °F 30.10 in Calm     71% 0.00 in 0.0 W/m2
17:23 44.7 °F 36.2 °F 30.10 in Calm     72% 0.00 in 0.0 W/m2
17:28 44.7 °F 36.2 °F 30.10 in Calm     72% 0.00 in 0.0 W/m2
17:34 44.7 °F 35.9 °F 30.10 in Calm     71% 0.00 in 0.0 W/m2
17:39 44.5 °F 35.7 °F 30.10 in Calm     71% 0.00 in 0.0 W/m2
17:44 44.5 °F 35.7 °F 30.10 in Calm     71% 0.00 in 0.0 W/m2
17:49 44.2 °F 35.4 °F 30.10 in Calm     71% 0.00 in 0.0 W/m2
17:54 43.7 °F 34.9 °F 30.10 in Calm     71% 0.00 in 0.0 W/m2
17:59 43.4 °F 35.0 °F 30.10 in Calm     72% 0.00 in 0.0 W/m2
18:04 43.4 °F 35.0 °F 30.10 in South 3.5 mph 3.5 mph 72% 0.00 in 0.0 W/m2
18:09 43.3 °F 34.9 °F 30.10 in South 3.5 mph 3.5 mph 72% 0.00 in 0.0 W/m2
18:14 43.2 °F 35.1 °F 30.09 in South 3.5 mph 3.5 mph 73% 0.00 in 0.0 W/m2
18:19 43.1 °F 34.7 °F 30.09 in South 3.5 mph   72% 0.00 in 0.0 W/m2
18:24 42.8 °F 34.4 °F 30.09 in Calm     72% 0.00 in 0.0 W/m2
18:29 42.4 °F 34.4 °F 30.09 in Calm     73% 0.00 in 0.0 W/m2
18:34 42.0 °F 34.3 °F 30.09 in Calm     74% 0.00 in 0.0 W/m2
18:39 41.9 °F 34.2 °F 30.09 in Calm     74% 0.00 in 0.0 W/m2
18:44 41.6 °F 33.9 °F 30.09 in Calm     74% 0.00 in 0.0 W/m2
18:49 41.3 °F 33.6 °F 30.09 in Calm     74% 0.00 in 0.0 W/m2
18:54 41.0 °F 33.7 °F 30.09 in Calm     75% 0.00 in 0.0 W/m2
18:59 40.9 °F 33.6 °F 30.09 in Calm     75% 0.00 in 0.0 W/m2
19:04 40.9 °F 33.9 °F 30.09 in South 2.3 mph 2.3 mph 76% 0.00 in 0.0 W/m2
19:09 41.3 °F 34.3 °F 30.08 in South 3.5 mph 3.5 mph 76% 0.00 in 0.0 W/m2
19:14 41.6 °F 34.3 °F 30.09 in Calm     75% 0.00 in 0.0 W/m2
19:19 41.5 °F 34.2 °F 30.09 in Calm     75% 0.00 in 0.0 W/m2
19:24 41.3 °F 34.0 °F 30.09 in Calm     75% 0.00 in 0.0 W/m2
19:29 41.1 °F 33.8 °F 30.09 in Calm     75% 0.00 in 0.0 W/m2
19:34 41.1 °F 34.1 °F 30.08 in South 5.8 mph 5.8 mph 76% 0.00 in 0.0 W/m2
19:39 41.1 °F 34.1 °F 30.08 in South 3.5 mph 3.5 mph 76% 0.00 in 0.0 W/m2
19:44 41.4 °F 34.4 °F 30.08 in South 3.5 mph 3.5 mph 76% 0.00 in 0.0 W/m2
19:49 41.7 °F 34.4 °F 30.08 in South 3.5 mph 3.5 mph 75% 0.00 in 0.0 W/m2
19:54 41.9 °F 34.6 °F 30.08 in South 3.5 mph 3.5 mph 75% 0.00 in 0.0 W/m2
19:59 41.9 °F 34.6 °F 30.08 in South 4.0 mph 4.0 mph 75% 0.00 in 0.0 W/m2
20:04 42.0 °F 34.6 °F 30.08 in South 4.0 mph 4.0 mph 75% 0.00 in 0.0 W/m2
20:09 42.0 °F 34.6 °F 30.08 in South 4.6 mph 4.6 mph 75% 0.00 in 0.0 W/m2
20:14 42.1 °F 34.7 °F 30.08 in South 3.5 mph 3.5 mph 75% 0.00 in 0.0 W/m2
20:19 42.0 °F 34.6 °F 30.08 in South 3.5 mph 3.5 mph 75% 0.00 in 0.0 W/m2
20:24 41.8 °F 34.5 °F 30.08 in South 4.6 mph 4.6 mph 75% 0.00 in 0.0 W/m2
20:29 41.7 °F 34.4 °F 30.08 in South 3.5 mph 3.5 mph 75% 0.00 in 0.0 W/m2
20:34 41.7 °F 34.4 °F 30.08 in South 3.5 mph 3.5 mph 75% 0.00 in 0.0 W/m2
20:39 41.6 °F 34.6 °F 30.08 in South 3.5 mph 3.5 mph 76% 0.00 in 0.0 W/m2
20:44 41.5 °F 34.5 °F 30.08 in South 3.5 mph 3.5 mph 76% 0.00 in 0.0 W/m2
20:49 41.5 °F 34.5 °F 30.08 in South 3.5 mph 3.5 mph 76% 0.00 in 0.0 W/m2
20:54 41.6 °F 34.6 °F 30.07 in South 1.2 mph 1.2 mph 76% 0.00 in 0.0 W/m2
20:59 41.7 °F 34.7 °F 30.07 in Calm     76% 0.00 in 0.0 W/m2
21:04 41.7 °F 34.7 °F 30.07 in Calm     76% 0.00 in 0.0 W/m2
21:09 41.5 °F 34.5 °F 30.07 in Calm     76% 0.00 in 0.0 W/m2
21:14 41.3 °F 34.3 °F 30.07 in Calm     76% 0.00 in 0.0 W/m2
21:19 41.0 °F 34.3 °F 30.07 in Calm     77% 0.00 in 0.0 W/m2
21:20 40.9 °F 34.2 °F 30.07 in Calm     77% 0.00 in 0.0 W/m2
21:21 40.9 °F 34.2 °F 30.07 in Calm     77% 0.00 in 0.0 W/m2
21:23 40.8 °F 34.1 °F 30.07 in Calm     77% 0.00 in 0.0 W/m2
21:26 40.8 °F 34.5 °F 30.07 in Calm     78% 0.00 in 0.0 W/m2
21:27 40.8 °F 34.1 °F 30.07 in Calm     77% 0.00 in 0.0 W/m2
21:31 40.9 °F 34.2 °F 30.07 in Calm     77% 0.00 in 0.0 W/m2
21:36 40.9 °F 34.6 °F 30.06 in Calm     78% 0.00 in 0.0 W/m2
21:38 40.8 °F 34.5 °F 30.06 in Calm     78% 0.00 in 0.0 W/m2
21:41 40.8 °F 34.5 °F 30.06 in Calm     78% 0.00 in 0.0 W/m2
21:46 40.8 °F 34.5 °F 30.06 in Calm     78% 0.00 in 0.0 W/m2
21:51 41.0 °F 34.7 °F 30.06 in South 3.5 mph 3.5 mph 78% 0.00 in 0.0 W/m2
21:56 40.9 °F 34.2 °F 30.06 in Calm     77% 0.00 in 0.0 W/m2
22:01 40.6 °F 34.3 °F 30.05 in Calm     78% 0.00 in 0.0 W/m2
22:06 40.4 °F 34.4 °F 30.05 in South 3.5 mph 3.5 mph 79% 0.00 in 0.0 W/m2
22:11 40.6 °F 34.9 °F 30.04 in South 4.6 mph 4.6 mph 80% 0.00 in 0.0 W/m2
22:16 41.0 °F 35.3 °F 30.04 in South 5.0 mph 5.0 mph 80% 0.00 in 0.0 W/m2
22:21 41.5 °F 35.8 °F 30.05 in South 8.1 mph 8.1 mph 80% 0.00 in 0.0 W/m2
22:26 43.0 °F 36.6 °F 30.04 in South 8.1 mph 8.1 mph 78% 0.00 in 0.0 W/m2
22:31 44.3 °F 36.9 °F 30.04 in South 8.1 mph 8.1 mph 75% 0.00 in 0.0 W/m2
22:36 45.1 °F 37.0 °F 30.04 in South 7.0 mph 7.0 mph 73% 0.00 in 0.0 W/m2
22:41 45.8 °F 37.3 °F 30.04 in South 8.1 mph 8.1 mph 72% 0.00 in 0.0 W/m2
22:46 46.4 °F 37.5 °F 30.04 in South 9.2 mph 9.2 mph 71% 0.00 in 0.0 W/m2
22:51 46.5 °F 37.2 °F 30.04 in South 7.0 mph 7.0 mph 70% 0.00 in 0.0 W/m2
22:56 46.8 °F 37.2 °F 30.04 in South 8.1 mph 8.1 mph 69% 0.00 in 0.0 W/m2
23:01 47.3 °F 37.6 °F 30.04 in South 8.1 mph 8.1 mph 69% 0.00 in 0.0 W/m2
23:06 47.7 °F 37.7 °F 30.04 in South 11.0 mph 11.0 mph 68% 0.00 in 0.0 W/m2
23:11 47.8 °F 37.7 °F 30.04 in South 9.2 mph 9.2 mph 68% 0.00 in 0.0 W/m2
23:16 47.8 °F 37.7 °F 30.04 in South 11.5 mph 11.5 mph 68% 0.00 in 0.0 W/m2
23:21 47.7 °F 37.7 °F 30.03 in South 12.0 mph 12.0 mph 68% 0.00 in 0.0 W/m2
23:26 47.7 °F 37.7 °F 30.03 in South 10.4 mph 10.4 mph 68% 0.00 in 0.0 W/m2
23:31 47.7 °F 37.7 °F 30.03 in South 12.0 mph 12.0 mph 68% 0.00 in 0.0 W/m2
23:36 47.7 °F 37.7 °F 30.03 in SSE 10.4 mph 10.4 mph 68% 0.00 in 0.0 W/m2
23:41 47.8 °F 37.7 °F 30.03 in SSE 12.7 mph 12.7 mph 68% 0.00 in 0.0 W/m2
23:46 48.1 °F 37.7 °F 30.02 in SSE 11.5 mph 11.5 mph 67% 0.00 in 0.0 W/m2
23:51 48.2 °F 37.8 °F 30.02 in SSE 12.7 mph 12.7 mph 67% 0.00 in 0.0 W/m2
23:56 48.4 °F 37.9 °F 30.02 in SSE 11.5 mph 11.5 mph 67% 0.00 in 0.0 W/m2
Bourbonnais, Illinois, USA
Compliments of Weather Underground - 4 mb